sensor_id;sensor_type;location;lat;lon;timestamp;pressure;altitude;pressure_sealevel;temperature;humidity
39891;BME280;25564;53.312;9.790;2023-05-07T00:00:59;101414.94;;;9.70;93.60
39891;BME280;25564;53.312;9.790;2023-05-07T00:03:31;101426.41;;;9.78;93.54
39891;BME280;25564;53.312;9.790;2023-05-07T00:06:02;101428.16;;;9.86;93.20
39891;BME280;25564;53.312;9.790;2023-05-07T00:08:34;101427.25;;;9.88;93.81
39891;BME280;25564;53.312;9.790;2023-05-07T00:11:05;101411.38;;;9.80;93.55
39891;BME280;25564;53.312;9.790;2023-05-07T00:13:37;101427.25;;;9.91;93.60
39891;BME280;25564;53.312;9.790;2023-05-07T00:16:08;101430.78;;;9.90;93.87
39891;BME280;25564;53.312;9.790;2023-05-07T00:18:40;101421.06;;;9.91;93.09
39891;BME280;25564;53.312;9.790;2023-05-07T00:21:11;101419.31;;;9.93;93.23
39891;BME280;25564;53.312;9.790;2023-05-07T00:23:42;101416.66;;;9.93;93.52
39891;BME280;25564;53.312;9.790;2023-05-07T00:26:13;101409.56;;;9.95;93.07
39891;BME280;25564;53.312;9.790;2023-05-07T00:28:45;101413.09;;;9.94;93.46
39891;BME280;25564;53.312;9.790;2023-05-07T00:31:16;101407.81;;;9.94;93.08
39891;BME280;25564;53.312;9.790;2023-05-07T00:33:47;101406.94;;;9.90;93.68
39891;BME280;25564;53.312;9.790;2023-05-07T00:36:19;101400.75;;;9.90;93.30
39891;BME280;25564;53.312;9.790;2023-05-07T00:38:50;101400.75;;;9.87;93.45
39891;BME280;25564;53.312;9.790;2023-05-07T00:41:21;101396.34;;;9.86;93.70
39891;BME280;25564;53.312;9.790;2023-05-07T00:43:53;101371.66;;;9.73;93.69
39891;BME280;25564;53.312;9.790;2023-05-07T00:46:24;101383.13;;;9.78;93.78
39891;BME280;25564;53.312;9.790;2023-05-07T00:48:57;101388.41;;;9.79;93.05
39891;BME280;25564;53.312;9.790;2023-05-07T00:51:30;101384.88;;;9.77;93.51
39891;BME280;25564;53.312;9.790;2023-05-07T00:54:02;101384.91;;;9.76;93.20
39891;BME280;25564;53.312;9.790;2023-05-07T00:56:34;101363.72;;;9.64;93.08
39891;BME280;25564;53.312;9.790;2023-05-07T00:59:06;101384.00;;;9.75;93.18
39891;BME280;25564;53.312;9.790;2023-05-07T01:01:37;101387.53;;;9.77;93.19
39891;BME280;25564;53.312;9.790;2023-05-07T01:04:08;101385.75;;;9.79;93.29
39891;BME280;25564;53.312;9.790;2023-05-07T01:06:41;101384.00;;;9.80;93.02
39891;BME280;25564;53.312;9.790;2023-05-07T01:09:13;101381.38;;;9.75;93.26
39891;BME280;25564;53.312;9.790;2023-05-07T01:11:45;101375.19;;;9.73;93.54
39891;BME280;25564;53.312;9.790;2023-05-07T01:14:17;101357.56;;;9.63;92.87
39891;BME280;25564;53.312;9.790;2023-05-07T01:16:49;101370.81;;;9.60;93.29
39891;BME280;25564;53.312;9.790;2023-05-07T01:19:22;101375.22;;;9.67;93.04
39891;BME280;25564;53.312;9.790;2023-05-07T01:22:01;101376.97;;;9.65;93.41
39891;BME280;25564;53.312;9.790;2023-05-07T01:24:35;101372.56;;;9.61;93.58
39891;BME280;25564;53.312;9.790;2023-05-07T01:27:07;101377.88;;;9.60;93.63
39891;BME280;25564;53.312;9.790;2023-05-07T01:29:38;101384.06;;;9.57;93.04
39891;BME280;25564;53.312;9.790;2023-05-07T01:32:10;101379.66;;;9.55;93.26
39891;BME280;25564;53.312;9.790;2023-05-07T01:34:43;101390.25;;;9.56;93.50
39891;BME280;25564;53.312;9.790;2023-05-07T01:37:17;101391.13;;;9.55;93.43
39891;BME280;25564;53.312;9.790;2023-05-07T01:39:48;101392.03;;;9.52;93.38
39891;BME280;25564;53.312;9.790;2023-05-07T01:42:21;101394.69;;;9.51;93.08
39891;BME280;25564;53.312;9.790;2023-05-07T01:44:52;101399.09;;;9.54;93.44
39891;BME280;25564;53.312;9.790;2023-05-07T01:47:24;101402.63;;;9.56;93.01
39891;BME280;25564;53.312;9.790;2023-05-07T01:49:57;101395.56;;;9.58;93.20
39891;BME280;25564;53.312;9.790;2023-05-07T01:52:29;101399.09;;;9.49;93.61
39891;BME280;25564;53.312;9.790;2023-05-07T01:55:00;101412.31;;;9.61;93.05
39891;BME280;25564;53.312;9.790;2023-05-07T01:57:31;101396.44;;;9.54;93.27
39891;BME280;25564;53.312;9.790;2023-05-07T02:00:03;101408.78;;;9.64;93.41
39891;BME280;25564;53.312;9.790;2023-05-07T02:02:36;101414.97;;;9.64;93.23
39891;BME280;25564;53.312;9.790;2023-05-07T02:05:09;101410.53;;;9.65;92.93
39891;BME280;25564;53.312;9.790;2023-05-07T02:07:41;101417.59;;;9.67;93.64
39891;BME280;25564;53.312;9.790;2023-05-07T02:10:12;101421.16;;;9.66;93.41
39891;BME280;25564;53.312;9.790;2023-05-07T02:12:44;101416.72;;;9.67;93.09
39891;BME280;25564;53.312;9.790;2023-05-07T02:15:15;101425.56;;;9.67;93.29
39891;BME280;25564;53.312;9.790;2023-05-07T02:18:03;101413.19;;;9.63;93.35
39891;BME280;25564;53.312;9.790;2023-05-07T02:20:35;101401.75;;;9.54;93.25
39891;BME280;25564;53.312;9.790;2023-05-07T02:23:06;101410.56;;;9.57;93.44
39891;BME280;25564;53.312;9.790;2023-05-07T02:25:38;101406.16;;;9.51;92.97
39891;BME280;25564;53.312;9.790;2023-05-07T02:28:09;101419.41;;;9.58;92.75
39891;BME280;25564;53.312;9.790;2023-05-07T02:30:40;101375.34;;;9.31;92.65
39891;BME280;25564;53.312;9.790;2023-05-07T02:33:12;101428.22;;;9.57;92.83
39891;BME280;25564;53.312;9.790;2023-05-07T02:35:45;101436.16;;;9.61;93.20
39891;BME280;25564;53.312;9.790;2023-05-07T02:38:16;101437.94;;;9.62;92.73
39891;BME280;25564;53.312;9.790;2023-05-07T02:40:47;101434.41;;;9.65;93.05
39891;BME280;25564;53.312;9.790;2023-05-07T02:43:19;101424.69;;;9.61;92.75
39891;BME280;25564;53.312;9.790;2023-05-07T02:46:00;101428.22;;;9.67;92.55
39891;BME280;25564;53.312;9.790;2023-05-07T02:48:32;101410.56;;;9.54;92.86
39891;BME280;25564;53.312;9.790;2023-05-07T02:51:04;101438.81;;;9.70;92.40
39891;BME280;25564;53.312;9.790;2023-05-07T02:53:36;101382.34;;;9.41;92.03
39891;BME280;25564;53.312;9.790;2023-05-07T02:56:07;101444.97;;;9.71;92.22
39891;BME280;25564;53.312;9.790;2023-05-07T02:58:39;101435.28;;;9.71;92.68
39891;BME280;25564;53.312;9.790;2023-05-07T03:01:10;101429.97;;;9.68;92.24
39891;BME280;25564;53.312;9.790;2023-05-07T03:03:42;101440.59;;;9.65;92.46
39891;BME280;25564;53.312;9.790;2023-05-07T03:06:13;101431.75;;;9.66;92.29
39891;BME280;25564;53.312;9.790;2023-05-07T03:08:45;101424.69;;;9.62;92.17
39891;BME280;25564;53.312;9.790;2023-05-07T03:11:16;101429.09;;;9.65;92.48
39891;BME280;25564;53.312;9.790;2023-05-07T03:13:47;101436.16;;;9.66;92.52
39891;BME280;25564;53.312;9.790;2023-05-07T03:16:20;101420.28;;;9.50;91.81
39891;BME280;25564;53.312;9.790;2023-05-07T03:18:52;101424.69;;;9.64;92.12
39891;BME280;25564;53.312;9.790;2023-05-07T03:21:23;101436.16;;;9.67;92.29
39891;BME280;25564;53.312;9.790;2023-05-07T03:23:54;101403.50;;;9.50;91.97
39891;BME280;25564;53.312;9.790;2023-05-07T03:26:26;101403.50;;;9.56;91.87
39891;BME280;25564;53.312;9.790;2023-05-07T03:28:57;101431.72;;;9.74;92.19
39891;BME280;25564;53.312;9.790;2023-05-07T03:31:28;101429.06;;;9.75;92.21
39891;BME280;25564;53.312;9.790;2023-05-07T03:34:00;101418.50;;;9.65;91.76
39891;BME280;25564;53.312;9.790;2023-05-07T03:36:31;101435.28;;;9.71;92.26
39891;BME280;25564;53.312;9.790;2023-05-07T03:39:02;101422.03;;;9.70;92.30
39891;BME280;25564;53.312;9.790;2023-05-07T03:41:34;101420.25;;;9.69;91.62
39891;BME280;25564;53.312;9.790;2023-05-07T03:44:05;101391.16;;;9.49;91.88
39891;BME280;25564;53.312;9.790;2023-05-07T03:46:37;101427.31;;;9.67;91.94
39891;BME280;25564;53.312;9.790;2023-05-07T03:49:08;101424.66;;;9.68;92.09
39891;BME280;25564;53.312;9.790;2023-05-07T03:51:40;101431.75;;;9.69;91.88
39891;BME280;25564;53.312;9.790;2023-05-07T03:54:11;101430.84;;;9.69;91.77
39891;BME280;25564;53.312;9.790;2023-05-07T03:56:43;101430.84;;;9.70;92.07
39891;BME280;25564;53.312;9.790;2023-05-07T03:59:14;101411.44;;;9.59;91.96
39891;BME280;25564;53.312;9.790;2023-05-07T04:01:45;101418.50;;;9.66;91.56
39891;BME280;25564;53.312;9.790;2023-05-07T04:04:17;101421.13;;;9.71;91.87
39891;BME280;25564;53.312;9.790;2023-05-07T04:06:48;101422.91;;;9.67;91.89
39891;BME280;25564;53.312;9.790;2023-05-07T04:09:20;101423.78;;;9.66;91.28
39891;BME280;25564;53.312;9.790;2023-05-07T04:11:51;101424.66;;;9.68;91.78
39891;BME280;25564;53.312;9.790;2023-05-07T04:14:22;101427.31;;;9.68;91.48
39891;BME280;25564;53.312;9.790;2023-05-07T04:16:54;101433.50;;;9.73;91.82
39891;BME280;25564;53.312;9.790;2023-05-07T04:19:25;101428.19;;;9.76;91.60
39891;BME280;25564;53.312;9.790;2023-05-07T04:21:57;101420.25;;;9.75;91.78
39891;BME280;25564;53.312;9.790;2023-05-07T04:24:31;101421.09;;;9.81;91.56
39891;BME280;25564;53.312;9.790;2023-05-07T04:27:04;101429.91;;;9.87;91.70
39891;BME280;25564;53.312;9.790;2023-05-07T04:29:35;101435.22;;;9.85;90.98
39891;BME280;25564;53.312;9.790;2023-05-07T04:32:06;101434.34;;;9.84;91.39
39891;BME280;25564;53.312;9.790;2023-05-07T04:34:38;101413.16;;;9.75;91.46
39891;BME280;25564;53.312;9.790;2023-05-07T04:37:09;101430.81;;;9.82;91.31
39891;BME280;25564;53.312;9.790;2023-05-07T04:39:41;101419.34;;;9.80;91.09
39891;BME280;25564;53.312;9.790;2023-05-07T04:42:15;101428.19;;;9.76;91.35
39891;BME280;25564;53.312;9.790;2023-05-07T04:44:47;101412.28;;;9.73;91.52
39891;BME280;25564;53.312;9.790;2023-05-07T04:47:18;101394.66;;;9.63;91.41
39891;BME280;25564;53.312;9.790;2023-05-07T04:49:50;101437.88;;;9.90;91.38
39891;BME280;25564;53.312;9.790;2023-05-07T04:52:21;101430.81;;;9.89;91.40
39891;BME280;25564;53.312;9.790;2023-05-07T04:54:52;101445.81;;;9.96;91.39
39891;BME280;25564;53.312;9.790;2023-05-07T04:57:23;101449.34;;;9.96;91.10
39891;BME280;25564;53.312;9.790;2023-05-07T04:59:55;101436.09;;;9.87;90.95
39891;BME280;25564;53.312;9.790;2023-05-07T05:02:26;101446.69;;;9.98;90.64
39891;BME280;25564;53.312;9.790;2023-05-07T05:04:57;101438.75;;;9.92;91.04
39891;BME280;25564;53.312;9.790;2023-05-07T05:07:30;101431.66;;;9.94;91.19
39891;BME280;25564;53.312;9.790;2023-05-07T05:10:02;101459.03;;;10.02;90.68
39891;BME280;25564;53.312;9.790;2023-05-07T05:12:34;101409.63;;;9.79;91.00
39891;BME280;25564;53.312;9.790;2023-05-07T05:15:06;101454.63;;;10.04;90.71
39891;BME280;25564;53.312;9.790;2023-05-07T05:17:37;101460.78;;;10.06;91.01
39891;BME280;25564;53.312;9.790;2023-05-07T05:20:09;101455.47;;;10.07;91.00
39891;BME280;25564;53.312;9.790;2023-05-07T05:22:42;101468.75;;;10.07;90.58
39891;BME280;25564;53.312;9.790;2023-05-07T05:25:13;101470.50;;;10.08;90.45
39891;BME280;25564;53.312;9.790;2023-05-07T05:27:45;101476.69;;;10.06;90.67
39891;BME280;25564;53.312;9.790;2023-05-07T05:30:16;101483.75;;;10.10;90.63
39891;BME280;25564;53.312;9.790;2023-05-07T05:32:47;101486.41;;;10.10;90.70
39891;BME280;25564;53.312;9.790;2023-05-07T05:35:19;101490.84;;;10.11;90.38
39891;BME280;25564;53.312;9.790;2023-05-07T05:37:50;101492.59;;;10.12;90.41
39891;BME280;25564;53.312;9.790;2023-05-07T05:40:21;101502.31;;;10.14;90.23
39891;BME280;25564;53.312;9.790;2023-05-07T05:42:53;101493.47;;;10.12;90.04
39891;BME280;25564;53.312;9.790;2023-05-07T05:45:24;101500.53;;;10.15;90.60
39891;BME280;25564;53.312;9.790;2023-05-07T05:47:56;101463.47;;;9.98;90.25
39891;BME280;25564;53.312;9.790;2023-05-07T05:50:27;101488.16;;;10.14;89.88
39891;BME280;25564;53.312;9.790;2023-05-07T05:52:59;101497.88;;;10.18;90.00
39891;BME280;25564;53.312;9.790;2023-05-07T05:55:30;101495.25;;;10.24;90.01
39891;BME280;25564;53.312;9.790;2023-05-07T05:58:03;101503.19;;;10.29;90.09
39891;BME280;25564;53.312;9.790;2023-05-07T06:00:35;101495.22;;;10.30;90.15
39891;BME280;25564;53.312;9.790;2023-05-07T06:03:06;101458.09;;;10.15;89.64
39891;BME280;25564;53.312;9.790;2023-05-07T06:05:38;101498.72;;;10.38;90.14
39891;BME280;25564;53.312;9.790;2023-05-07T06:08:09;101500.44;;;10.45;89.84
39891;BME280;25564;53.312;9.790;2023-05-07T06:10:40;101501.28;;;10.51;89.93
39891;BME280;25564;53.312;9.790;2023-05-07T06:13:12;101504.81;;;10.56;89.87
39891;BME280;25564;53.312;9.790;2023-05-07T06:15:43;101486.28;;;10.46;89.29
39891;BME280;25564;53.312;9.790;2023-05-07T06:18:14;101505.66;;;10.61;89.46
39891;BME280;25564;53.312;9.790;2023-05-07T06:20:46;101498.56;;;10.63;89.74
39891;BME280;25564;53.312;9.790;2023-05-07T06:23:17;101504.72;;;10.71;89.26
39891;BME280;25564;53.312;9.790;2023-05-07T06:25:49;101509.13;;;10.73;89.23
39891;BME280;25564;53.312;9.790;2023-05-07T06:28:23;101510.88;;;10.79;89.18
39891;BME280;25564;53.312;9.790;2023-05-07T06:30:55;101498.50;;;10.76;89.31
39891;BME280;25564;53.312;9.790;2023-05-07T06:33:26;101515.28;;;10.83;88.88
39891;BME280;25564;53.312;9.790;2023-05-07T06:35:57;101509.97;;;10.81;89.15
39891;BME280;25564;53.312;9.790;2023-05-07T06:38:29;101509.06;;;10.89;88.99
39891;BME280;25564;53.312;9.790;2023-05-07T06:41:00;101508.13;;;10.93;88.71
39891;BME280;25564;53.312;9.790;2023-05-07T06:43:32;101502.78;;;10.99;88.83
39891;BME280;25564;53.312;9.790;2023-05-07T06:46:03;101508.94;;;11.05;88.83
39891;BME280;25564;53.312;9.790;2023-05-07T06:48:34;101505.34;;;11.14;88.59
39891;BME280;25564;53.312;9.790;2023-05-07T06:51:06;101512.44;;;11.13;88.46
39891;BME280;25564;53.312;9.790;2023-05-07T06:53:37;101504.44;;;11.15;88.52
39891;BME280;25564;53.312;9.790;2023-05-07T06:56:08;101523.91;;;11.19;88.22
39891;BME280;25564;53.312;9.790;2023-05-07T06:58:40;101518.59;;;11.20;87.98
39891;BME280;25564;53.312;9.790;2023-05-07T07:01:11;101527.38;;;11.30;88.00
39891;BME280;25564;53.312;9.790;2023-05-07T07:03:42;101513.16;;;11.34;87.72
39891;BME280;25564;53.312;9.790;2023-05-07T07:06:14;101485.78;;;11.23;87.43
39891;BME280;25564;53.312;9.790;2023-05-07T07:08:45;101508.75;;;11.33;87.32
39891;BME280;25564;53.312;9.790;2023-05-07T07:11:17;101509.56;;;11.39;87.52
39891;BME280;25564;53.312;9.790;2023-05-07T07:13:48;101500.72;;;11.40;87.48
39891;BME280;25564;53.312;9.790;2023-05-07T07:16:21;101492.59;;;11.53;86.64
39891;BME280;25564;53.312;9.790;2023-05-07T07:18:52;101516.44;;;11.62;87.11
39891;BME280;25564;53.312;9.790;2023-05-07T07:21:23;101489.78;;;11.68;87.34
39891;BME280;25564;53.312;9.790;2023-05-07T07:23:55;101504.75;;;11.83;86.73
39891;BME280;25564;53.312;9.790;2023-05-07T07:26:26;101501.13;;;11.90;86.75
39891;BME280;25564;53.312;9.790;2023-05-07T07:28:57;101513.47;;;11.97;86.35
39891;BME280;25564;53.312;9.790;2023-05-07T07:31:29;101510.81;;;11.97;86.30
39891;BME280;25564;53.312;9.790;2023-05-07T07:34:00;101509.81;;;12.07;85.98
39891;BME280;25564;53.312;9.790;2023-05-07T07:36:32;101500.97;;;12.06;85.93
39891;BME280;25564;53.312;9.790;2023-05-07T07:39:15;101508.75;;;12.23;85.96
39891;BME280;25564;53.312;9.790;2023-05-07T07:41:47;101521.03;;;12.35;85.69
39891;BME280;25564;53.312;9.790;2023-05-07T07:44:18;101496.31;;;12.25;85.47
39891;BME280;25564;53.312;9.790;2023-05-07T07:46:49;101519.28;;;12.34;85.20
39891;BME280;25564;53.312;9.790;2023-05-07T07:49:21;101514.88;;;12.31;85.14
39891;BME280;25564;53.312;9.790;2023-05-07T07:51:53;101517.56;;;12.28;85.28
39891;BME280;25564;53.312;9.790;2023-05-07T07:54:24;101528.19;;;12.30;85.09
39891;BME280;25564;53.312;9.790;2023-05-07T07:56:56;101522.81;;;12.34;85.07
39891;BME280;25564;53.312;9.790;2023-05-07T07:59:28;101514.91;;;12.28;84.78
39891;BME280;25564;53.312;9.790;2023-05-07T08:01:59;101516.56;;;12.37;85.11
39891;BME280;25564;53.312;9.790;2023-05-07T08:04:30;101529.59;;;12.58;84.47
39891;BME280;25564;53.312;9.790;2023-05-07T08:07:04;101538.34;;;12.68;84.26
39891;BME280;25564;53.312;9.790;2023-05-07T08:09:37;101536.56;;;12.67;84.20
39891;BME280;25564;53.312;9.790;2023-05-07T08:12:08;101530.47;;;12.59;84.13
39891;BME280;25564;53.312;9.790;2023-05-07T08:14:39;101535.72;;;12.65;84.29
39891;BME280;25564;53.312;9.790;2023-05-07T08:17:11;101530.38;;;12.65;83.96
39891;BME280;25564;53.312;9.790;2023-05-07T08:19:43;101534.84;;;12.64;83.92
39891;BME280;25564;53.312;9.790;2023-05-07T08:22:14;101520.56;;;12.70;83.98
39891;BME280;25564;53.312;9.790;2023-05-07T08:24:46;101540.75;;;12.86;83.60
39891;BME280;25564;53.312;9.790;2023-05-07T08:27:18;101541.47;;;12.99;83.20
39891;BME280;25564;53.312;9.790;2023-05-07T08:29:49;101544.03;;;13.06;83.06
39891;BME280;25564;53.312;9.790;2023-05-07T08:32:21;101530.63;;;13.11;82.90
39891;BME280;25564;53.312;9.790;2023-05-07T08:34:52;101542.84;;;13.29;82.67
39891;BME280;25564;53.312;9.790;2023-05-07T08:37:24;101554.13;;;13.46;82.87
39891;BME280;25564;53.312;9.790;2023-05-07T08:39:55;101552.38;;;13.44;82.43
39891;BME280;25564;53.312;9.790;2023-05-07T08:42:27;101548.78;;;13.46;82.02
39891;BME280;25564;53.312;9.790;2023-05-07T08:44:59;101528.34;;;13.47;82.03
39891;BME280;25564;53.312;9.790;2023-05-07T08:47:37;101542.84;;;13.80;82.25
39891;BME280;25564;53.312;9.790;2023-05-07T08:50:10;101509.13;;;13.75;81.76
39891;BME280;25564;53.312;9.790;2023-05-07T08:52:43;101533.50;;;14.05;81.57
39891;BME280;25564;53.312;9.790;2023-05-07T08:55:14;101529.13;;;14.01;80.96
39891;BME280;25564;53.312;9.790;2023-05-07T08:57:46;101556.31;;;14.21;80.68
39891;BME280;25564;53.312;9.790;2023-05-07T09:00:19;101542.78;;;14.30;80.69
39891;BME280;25564;53.312;9.790;2023-05-07T09:02:52;101550.00;;;14.25;80.35
39891;BME280;25564;53.312;9.790;2023-05-07T09:05:23;101556.59;;;14.07;80.05
39891;BME280;25564;53.312;9.790;2023-05-07T09:07:55;101551.28;;;14.06;80.35
39891;BME280;25564;53.312;9.790;2023-05-07T09:10:29;101568.69;;;14.25;80.05
39891;BME280;25564;53.312;9.790;2023-05-07T09:13:02;101566.03;;;14.25;79.83
39891;BME280;25564;53.312;9.790;2023-05-07T09:15:34;101568.53;;;14.34;79.69
39891;BME280;25564;53.312;9.790;2023-05-07T09:18:05;101575.50;;;14.43;79.50
39891;BME280;25564;53.312;9.790;2023-05-07T09:20:37;101560.56;;;14.31;79.12
39891;BME280;25564;53.312;9.790;2023-05-07T09:23:09;101537.69;;;14.18;79.04
39891;BME280;25564;53.312;9.790;2023-05-07T09:25:40;101562.19;;;14.42;78.99
39891;BME280;25564;53.312;9.790;2023-05-07T09:28:12;101568.75;;;14.67;78.70
39891;BME280;25564;53.312;9.790;2023-05-07T09:30:44;101566.09;;;14.67;78.37
39891;BME280;25564;53.312;9.790;2023-05-07T09:33:15;101567.78;;;14.71;78.70
39891;BME280;25564;53.312;9.790;2023-05-07T09:35:51;101547.13;;;14.79;78.05
39891;BME280;25564;53.312;9.790;2023-05-07T09:38:22;101563.28;;;15.15;78.17
39891;BME280;25564;53.312;9.790;2023-05-07T09:41:14;101559.88;;;15.45;76.37
39891;BME280;25564;53.312;9.790;2023-05-07T09:43:45;101575.81;;;15.50;77.47
39891;BME280;25564;53.312;9.790;2023-05-07T09:46:17;101576.31;;;15.65;76.89
39891;BME280;25564;53.312;9.790;2023-05-07T09:48:57;101572.56;;;15.73;76.54
39891;BME280;25564;53.312;9.790;2023-05-07T09:51:30;101563.63;;;15.74;76.00
39891;BME280;25564;53.312;9.790;2023-05-07T09:54:05;101550.72;;;15.57;75.84
39891;BME280;25564;53.312;9.790;2023-05-07T09:56:39;101551.47;;;15.60;75.80
39891;BME280;25564;53.312;9.790;2023-05-07T09:59:14;101562.56;;;15.81;75.80
39891;BME280;25564;53.312;9.790;2023-05-07T10:01:46;101570.34;;;15.90;75.47
39891;BME280;25564;53.312;9.790;2023-05-07T10:04:18;101558.84;;;15.86;75.11
39891;BME280;25564;53.312;9.790;2023-05-07T10:06:50;101558.69;;;15.92;74.71
39891;BME280;25564;53.312;9.790;2023-05-07T10:09:22;101559.50;;;15.96;74.71
39891;BME280;25564;53.312;9.790;2023-05-07T10:11:54;101562.44;;;15.85;74.61
39891;BME280;25564;53.312;9.790;2023-05-07T10:14:27;101565.13;;;15.85;74.66
39891;BME280;25564;53.312;9.790;2023-05-07T10:16:59;101561.16;;;16.00;74.59
39891;BME280;25564;53.312;9.790;2023-05-07T10:19:31;101573.00;;;15.91;73.77
39891;BME280;25564;53.312;9.790;2023-05-07T10:22:05;101564.13;;;15.89;73.98
39891;BME280;25564;53.312;9.790;2023-05-07T10:24:37;101547.38;;;15.81;73.97
39891;BME280;25564;53.312;9.790;2023-05-07T10:27:10;101555.22;;;15.89;73.67
39891;BME280;25564;53.312;9.790;2023-05-07T10:32:39;101568.75;;;16.17;72.72
39891;BME280;25564;53.312;9.790;2023-05-07T10:35:19;101564.09;;;16.23;73.10
39891;BME280;25564;53.312;9.790;2023-05-07T10:37:51;101569.75;;;16.13;73.34
39891;BME280;25564;53.312;9.790;2023-05-07T10:40:23;101554.94;;;15.99;72.95
39891;BME280;25564;53.312;9.790;2023-05-07T10:42:55;101567.44;;;15.99;73.16
39891;BME280;25564;53.312;9.790;2023-05-07T10:45:28;101575.72;;;15.90;73.04
39891;BME280;25564;53.312;9.790;2023-05-07T10:48:11;101572.06;;;15.92;72.41
39891;BME280;25564;53.312;9.790;2023-05-07T10:50:45;101575.28;;;16.07;73.00
39891;BME280;25564;53.312;9.790;2023-05-07T10:53:21;101552.63;;;16.18;72.84
39891;BME280;25564;53.312;9.790;2023-05-07T10:58:48;101585.75;;;16.48;71.99
39891;BME280;25564;53.312;9.790;2023-05-07T11:04:42;101572.81;;;16.31;72.67
39891;BME280;25564;53.312;9.790;2023-05-07T11:07:27;101575.63;;;16.58;71.60
39891;BME280;25564;53.312;9.790;2023-05-07T11:10:01;101561.94;;;16.68;72.09
39891;BME280;25564;53.312;9.790;2023-05-07T11:15:11;101567.25;;;16.99;71.58
39891;BME280;25564;53.312;9.790;2023-05-07T11:17:53;101541.19;;;17.05;70.44
39891;BME280;25564;53.312;9.790;2023-05-07T11:20:48;101575.09;;;17.35;69.44
39891;BME280;25564;53.312;9.790;2023-05-07T11:26:05;101577.31;;;17.77;70.22
39891;BME280;25564;53.312;9.790;2023-05-07T11:28:38;101574.50;;;18.06;69.95
39891;BME280;25564;53.312;9.790;2023-05-07T11:31:10;101562.13;;;18.02;69.40
39891;BME280;25564;53.312;9.790;2023-05-07T11:33:43;101567.72;;;18.21;68.75
39891;BME280;25564;53.312;9.790;2023-05-07T11:36:15;101582.91;;;18.22;68.43
39891;BME280;25564;53.312;9.790;2023-05-07T11:38:47;101581.63;;;18.07;68.32
39891;BME280;25564;53.312;9.790;2023-05-07T11:41:18;101569.72;;;17.89;68.42
39891;BME280;25564;53.312;9.790;2023-05-07T11:43:56;101559.03;;;17.88;68.06
39891;BME280;25564;53.312;9.790;2023-05-07T11:46:29;101580.97;;;18.01;68.53
39891;BME280;25564;53.312;9.790;2023-05-07T11:49:01;101567.06;;;17.88;69.48
39891;BME280;25564;53.312;9.790;2023-05-07T11:51:32;101563.63;;;17.84;69.46
39891;BME280;25564;53.312;9.790;2023-05-07T11:54:04;101556.84;;;17.73;68.65
39891;BME280;25564;53.312;9.790;2023-05-07T11:56:39;101574.94;;;17.94;68.55
39891;BME280;25564;53.312;9.790;2023-05-07T11:59:11;101575.84;;;18.19;68.52
39891;BME280;25564;53.312;9.790;2023-05-07T12:01:45;101541.22;;;18.35;67.37
39891;BME280;25564;53.312;9.790;2023-05-07T12:04:19;101566.28;;;18.36;67.07
39891;BME280;25564;53.312;9.790;2023-05-07T12:06:55;101565.69;;;18.27;67.53
39891;BME280;25564;53.312;9.790;2023-05-07T12:09:32;101555.38;;;18.15;67.33
39891;BME280;25564;53.312;9.790;2023-05-07T12:12:04;101553.28;;;17.98;67.81
39891;BME280;25564;53.312;9.790;2023-05-07T12:14:39;101543.44;;;18.24;66.98
39891;BME280;25564;53.312;9.790;2023-05-07T12:17:12;101552.50;;;18.45;67.21
39891;BME280;25564;53.312;9.790;2023-05-07T12:19:45;101570.63;;;18.40;66.29
39891;BME280;25564;53.312;9.790;2023-05-07T12:22:17;101555.88;;;18.26;66.32
39891;BME280;25564;53.312;9.790;2023-05-07T12:24:56;101566.34;;;18.09;66.35
39891;BME280;25564;53.312;9.790;2023-05-07T12:27:27;101556.03;;;17.97;66.38
39891;BME280;25564;53.312;9.790;2023-05-07T12:29:59;101559.13;;;17.85;66.42
39891;BME280;25564;53.312;9.790;2023-05-07T12:32:30;101540.13;;;17.64;66.21
39891;BME280;25564;53.312;9.790;2023-05-07T12:35:02;101531.56;;;17.53;66.22
39891;BME280;25564;53.312;9.790;2023-05-07T12:37:35;101549.03;;;17.67;66.14
39891;BME280;25564;53.312;9.790;2023-05-07T12:40:10;101548.28;;;17.61;65.73
39891;BME280;25564;53.312;9.790;2023-05-07T12:42:42;101558.53;;;17.49;66.54
39891;BME280;25564;53.312;9.790;2023-05-07T12:45:15;101550.50;;;17.49;66.38
39891;BME280;25564;53.312;9.790;2023-05-07T12:47:48;101547.34;;;17.36;66.03
39891;BME280;25564;53.312;9.790;2023-05-07T12:50:19;101545.69;;;17.32;66.37
39891;BME280;25564;53.312;9.790;2023-05-07T12:52:52;101563.53;;;17.33;66.16
39891;BME280;25564;53.312;9.790;2023-05-07T12:55:23;101528.50;;;17.38;66.42
39891;BME280;25564;53.312;9.790;2023-05-07T12:57:54;101560.81;;;17.61;66.08
39891;BME280;25564;53.312;9.790;2023-05-07T13:00:38;101554.47;;;17.90;65.38
39891;BME280;25564;53.312;9.790;2023-05-07T13:03:10;101555.09;;;18.23;65.43
39891;BME280;25564;53.312;9.790;2023-05-07T13:05:42;101561.47;;;18.20;65.62
39891;BME280;25564;53.312;9.790;2023-05-07T13:08:23;101559.69;;;17.94;64.89
39891;BME280;25564;53.312;9.790;2023-05-07T13:10:54;101547.63;;;17.81;65.62
39891;BME280;25564;53.312;9.790;2023-05-07T13:13:26;101555.09;;;17.98;65.33
39891;BME280;25564;53.312;9.790;2023-05-07T13:16:04;101547.22;;;18.18;65.04
39891;BME280;25564;53.312;9.790;2023-05-07T13:18:38;101541.63;;;18.24;64.45
39891;BME280;25564;53.312;9.790;2023-05-07T13:21:10;101546.66;;;18.34;64.72
39891;BME280;25564;53.312;9.790;2023-05-07T13:23:44;101545.34;;;18.45;64.35
39891;BME280;25564;53.312;9.790;2023-05-07T13:26:15;101553.13;;;18.53;64.10
39891;BME280;25564;53.312;9.790;2023-05-07T13:28:57;101538.25;;;18.43;64.87
39891;BME280;25564;53.312;9.790;2023-05-07T13:31:28;101548.63;;;18.28;64.46
39891;BME280;25564;53.312;9.790;2023-05-07T13:33:59;101541.00;;;18.16;64.59
39891;BME280;25564;53.312;9.790;2023-05-07T13:36:31;101538.00;;;18.01;64.79